createdAt,value
2019-01-27T00:01:58.575Z,4.84
2019-01-27T00:04:27.113Z,4.77
2019-01-27T00:06:55.684Z,4.93
2019-01-27T00:09:24.231Z,4.94
2019-01-27T00:11:53.058Z,4.87
2019-01-27T00:14:21.634Z,4.82
2019-01-27T00:16:50.490Z,4.88
2019-01-27T00:19:19.101Z,4.84
2019-01-27T00:21:48.843Z,4.85
2019-01-27T00:24:18.438Z,4.84
2019-01-27T00:26:47.737Z,4.88
2019-01-27T00:29:17.066Z,4.85
2019-01-27T00:31:45.637Z,4.88
2019-01-27T00:34:14.168Z,4.83
2019-01-27T00:36:43.021Z,4.81
2019-01-27T00:39:12.338Z,4.76
2019-01-27T00:41:41.602Z,4.78
2019-01-27T00:44:11.184Z,4.73
2019-01-27T00:46:40.813Z,4.81
2019-01-27T00:49:10.764Z,4.80
2019-01-27T00:51:40.457Z,4.80
2019-01-27T00:54:09.817Z,4.82
2019-01-27T00:56:39.430Z,4.78
2019-01-27T00:59:08.457Z,4.77
2019-01-27T01:01:38.057Z,4.81
2019-01-27T01:04:07.478Z,4.98
2019-01-27T01:06:37.140Z,4.98
2019-01-27T01:09:10.816Z,4.93
2019-01-27T01:11:40.382Z,4.94
2019-01-27T01:14:08.926Z,5.00
2019-01-27T01:16:38.595Z,4.93
2019-01-27T01:19:08.162Z,4.89
2019-01-27T01:21:37.083Z,4.93
2019-01-27T01:24:06.493Z,4.86
2019-01-27T01:26:36.064Z,4.82
2019-01-27T01:29:05.674Z,4.85
2019-01-27T01:31:35.206Z,4.82
2019-01-27T01:34:04.893Z,4.78
2019-01-27T01:36:34.140Z,4.75
2019-01-27T01:39:05.105Z,4.73
2019-01-27T01:41:34.670Z,4.74
2019-01-27T01:44:03.558Z,4.74
2019-01-27T01:46:32.976Z,4.77
2019-01-27T01:49:02.329Z,4.78
2019-01-27T01:51:31.240Z,4.75
2019-01-27T01:54:00.978Z,4.73
2019-01-27T01:56:30.649Z,4.84
2019-01-27T01:59:00.258Z,4.76
2019-01-27T02:01:28.820Z,4.86
2019-01-27T02:03:57.384Z,4.84
2019-01-27T02:06:26.279Z,4.87
2019-01-27T02:08:54.838Z,4.85
2019-01-27T02:11:23.369Z,4.86
2019-01-27T02:13:51.958Z,4.85
2019-01-27T02:16:20.530Z,4.84
2019-01-27T02:18:49.806Z,4.85
2019-01-27T02:21:19.197Z,4.76
2019-01-27T02:23:48.883Z,4.80
2019-01-27T02:26:18.294Z,4.92
2019-01-27T02:28:48.026Z,4.92
2019-01-27T02:31:17.746Z,4.89
2019-01-27T02:33:47.111Z,4.88
2019-01-27T02:36:16.410Z,4.80
2019-01-27T02:38:45.969Z,4.81
2019-01-27T02:41:15.527Z,4.81
2019-01-27T02:43:44.375Z,4.88
2019-01-27T02:46:13.347Z,4.84
2019-01-27T02:48:42.570Z,4.83
2019-01-27T02:51:12.218Z,4.92
2019-01-27T02:53:41.879Z,4.86
2019-01-27T02:56:11.546Z,4.86
2019-01-27T02:58:40.942Z,4.84
2019-01-27T03:01:10.169Z,4.87
2019-01-27T03:03:39.510Z,4.91
2019-01-27T03:06:22.391Z,4.86
2019-01-27T03:08:55.420Z,4.87
2019-01-27T03:11:24.678Z,4.84
2019-01-27T03:13:53.582Z,4.82
2019-01-27T03:16:23.295Z,4.87
2019-01-27T03:18:52.480Z,4.95
2019-01-27T03:21:21.858Z,4.87
2019-01-27T03:23:51.307Z,4.84
2019-01-27T03:26:20.628Z,4.83
2019-01-27T03:28:50.274Z,4.89
2019-01-27T03:31:20.014Z,4.86
2019-01-27T03:33:49.275Z,4.88
2019-01-27T03:36:18.106Z,4.91
2019-01-27T03:38:47.041Z,4.86
2019-01-27T03:41:15.994Z,4.82
2019-01-27T03:43:45.219Z,4.74
2019-01-27T03:46:13.779Z,4.74
2019-01-27T03:48:43.452Z,4.74
2019-01-27T03:51:13.105Z,4.76
2019-01-27T03:53:42.326Z,4.70
2019-01-27T03:56:10.868Z,4.68
2019-01-27T03:58:39.430Z,4.70
2019-01-27T04:01:08.355Z,4.74
2019-01-27T04:03:37.757Z,4.71
2019-01-27T04:06:06.766Z,4.73
2019-01-27T04:08:36.444Z,4.71
2019-01-27T04:11:05.742Z,4.71
2019-01-27T04:13:35.378Z,4.71
2019-01-27T04:16:04.345Z,4.68
2019-01-27T04:18:33.874Z,4.62
2019-01-27T04:21:03.584Z,4.67
2019-01-27T04:23:32.620Z,4.72
2019-01-27T04:26:01.616Z,4.76
2019-01-27T04:28:30.161Z,4.79
2019-01-27T04:30:58.696Z,4.86
2019-01-27T04:33:27.253Z,4.87
2019-01-27T04:35:55.791Z,4.86
2019-01-27T04:38:24.418Z,4.91
2019-01-27T04:40:52.910Z,4.87
2019-01-27T04:43:21.486Z,4.84
2019-01-27T04:45:50.032Z,4.84
2019-01-27T04:48:18.581Z,4.85
2019-01-27T04:50:47.149Z,4.87
2019-01-27T04:53:15.718Z,4.85
2019-01-27T04:55:44.280Z,4.84
2019-01-27T04:58:12.821Z,4.82
2019-01-27T05:00:41.393Z,4.82
2019-01-27T05:03:41.187Z,4.78
2019-01-27T05:06:09.754Z,4.76
2019-01-27T05:08:38.292Z,4.80
2019-01-27T05:11:06.866Z,4.81
2019-01-27T05:13:35.407Z,4.88
2019-01-27T05:16:03.981Z,4.86
2019-01-27T05:18:32.517Z,4.82
2019-01-27T05:21:01.062Z,4.87
2019-01-27T05:23:29.626Z,4.85
2019-01-27T05:25:58.188Z,4.80
2019-01-27T05:28:26.854Z,4.81
2019-01-27T05:30:55.395Z,4.82
2019-01-27T05:33:23.927Z,4.85
2019-01-27T05:35:52.561Z,4.83
2019-01-27T05:38:21.125Z,4.83
2019-01-27T05:40:49.688Z,4.83
2019-01-27T05:43:18.234Z,4.83
2019-01-27T05:45:46.806Z,4.85
2019-01-27T05:48:15.347Z,4.90
2019-01-27T05:50:43.929Z,4.89
2019-01-27T05:53:12.471Z,4.87
2019-01-27T05:55:41.009Z,4.84
2019-01-27T05:58:09.588Z,4.82
2019-01-27T06:00:40.594Z,4.78
2019-01-27T06:03:09.127Z,4.80
2019-01-27T06:05:37.697Z,4.73
2019-01-27T06:08:06.242Z,4.76
2019-01-27T06:10:34.776Z,4.80
2019-01-27T06:13:03.344Z,4.80
2019-01-27T06:15:31.914Z,4.80
2019-01-27T06:18:00.487Z,4.82
2019-01-27T06:20:29.027Z,4.77
2019-01-27T06:22:57.590Z,4.66
2019-01-27T06:25:26.583Z,4.54
2019-01-27T06:27:55.158Z,4.55
2019-01-27T06:30:24.799Z,4.59
2019-01-27T06:33:07.178Z,4.61
2019-01-27T06:35:36.293Z,4.68
2019-01-27T06:38:04.832Z,4.78
2019-01-27T06:40:33.738Z,4.73
2019-01-27T06:43:02.275Z,4.57
2019-01-27T06:45:30.814Z,4.54
2019-01-27T06:47:59.380Z,4.52
2019-01-27T06:50:27.945Z,4.48
2019-01-27T06:52:57.190Z,4.51
2019-01-27T06:55:26.020Z,4.64
2019-01-27T06:57:54.553Z,4.68
2019-01-27T07:00:45.007Z,4.72
2019-01-27T07:03:20.652Z,4.63
2019-01-27T07:06:14.102Z,4.65
2019-01-27T07:08:52.383Z,4.52
2019-01-27T07:12:00.337Z,4.41
2019-01-27T07:14:56.724Z,4.28
2019-01-27T07:17:54.687Z,4.36
2019-01-27T07:20:31.962Z,4.41
2019-01-27T07:23:15.444Z,4.44
2019-01-27T07:26:01.041Z,4.40
2019-01-27T07:28:53.861Z,4.53
2019-01-27T07:31:33.765Z,4.71
2019-01-27T07:34:20.265Z,4.83
2019-01-27T07:36:55.084Z,4.87
2019-01-27T07:39:41.398Z,4.86
2019-01-27T07:42:25.322Z,4.92
2019-01-27T07:45:09.666Z,4.89
2019-01-27T07:47:56.420Z,4.87
2019-01-27T07:50:32.414Z,4.92
2019-01-27T07:53:13.111Z,4.91
2019-01-27T07:55:59.468Z,4.89
2019-01-27T07:58:35.949Z,4.95
2019-01-27T08:01:14.200Z,4.95
2019-01-27T08:03:54.321Z,4.91
2019-01-27T08:06:28.576Z,4.87
2019-01-27T08:09:03.055Z,4.82
2019-01-27T08:11:49.491Z,4.85
2019-01-27T08:14:30.848Z,4.88
2019-01-27T08:17:05.497Z,4.95
2019-01-27T08:19:53.319Z,4.87
2019-01-27T08:22:45.064Z,4.78
2019-01-27T08:25:35.922Z,4.71
2019-01-27T08:28:13.126Z,4.63
2019-01-27T08:31:00.744Z,4.56
2019-01-27T08:33:48.184Z,4.53
2019-01-27T08:36:25.002Z,4.58
2019-01-27T08:39:18.348Z,4.62
2019-01-27T08:42:04.806Z,4.63
2019-01-27T08:44:52.365Z,4.86
2019-01-27T08:47:20.935Z,4.95
2019-01-27T08:49:49.468Z,5.34
2019-01-27T08:52:19.277Z,5.54
2019-01-27T08:54:48.189Z,5.76
2019-01-27T08:57:16.794Z,6.04
2019-01-27T08:59:45.373Z,6.33
2019-01-27T09:02:31.674Z,6.68
2019-01-27T09:05:13.912Z,6.64
2019-01-27T09:07:57.754Z,6.32
2019-01-27T09:10:54.450Z,5.99
2019-01-27T09:13:41.004Z,5.80
2019-01-27T09:16:32.909Z,5.72
2019-01-27T09:19:23.561Z,5.79
2019-01-27T09:22:09.785Z,5.86
2019-01-27T09:24:56.797Z,5.87
2019-01-27T09:27:33.469Z,5.93
2019-01-27T09:30:13.683Z,6.03
2019-01-27T09:32:50.600Z,6.05
2019-01-27T09:35:26.109Z,5.99
2019-01-27T09:38:15.518Z,5.96
2019-01-27T09:41:01.948Z,6.00
2019-01-27T09:44:05.170Z,6.01
2019-01-27T09:46:52.729Z,6.01
2019-01-27T09:49:40.322Z,6.03
2019-01-27T09:52:33.969Z,6.24
2019-01-27T09:55:11.024Z,6.53
2019-01-27T09:57:57.254Z,6.53
2019-01-27T10:00:32.872Z,6.59
2019-01-27T10:03:10.441Z,6.79
2019-01-27T10:06:01.137Z,6.96
2019-01-27T10:08:37.925Z,7.31
2019-01-27T10:11:19.035Z,7.40
2019-01-27T10:14:02.149Z,7.43
2019-01-27T10:16:37.163Z,7.56
2019-01-27T10:19:30.830Z,7.51
2019-01-27T10:22:14.690Z,7.23
2019-01-27T10:25:02.354Z,7.00
2019-01-27T10:27:38.164Z,6.92
2019-01-27T10:30:29.566Z,6.95
2019-01-27T10:33:16.117Z,7.08
2019-01-27T10:35:54.022Z,7.21
2019-01-27T10:38:34.359Z,7.29
2019-01-27T10:41:21.944Z,7.12
2019-01-27T10:44:12.517Z,7.09
2019-01-27T10:46:51.539Z,7.17
2019-01-27T10:49:41.947Z,7.42
2019-01-27T10:52:28.463Z,7.73
2019-01-27T10:55:08.810Z,7.70
2019-01-27T10:57:50.263Z,7.82
2019-01-27T11:00:34.728Z,7.61
2019-01-27T11:03:13.752Z,7.53
2019-01-27T11:06:04.174Z,7.44
2019-01-27T11:08:53.824Z,7.31
2019-01-27T11:11:38.005Z,7.45
2019-01-27T11:14:16.493Z,7.68
2019-01-27T11:17:10.133Z,7.81
2019-01-27T11:20:03.423Z,7.64
2019-01-27T11:22:39.525Z,7.55
2019-01-27T11:25:30.905Z,7.42
2019-01-27T11:28:06.797Z,7.27
2019-01-27T11:30:56.054Z,7.27
2019-01-27T11:33:42.338Z,7.27
2019-01-27T11:36:36.011Z,7.46
2019-01-27T11:39:29.688Z,7.46
2019-01-27T11:42:15.961Z,7.62
2019-01-27T11:45:12.699Z,7.95
2019-01-27T11:47:49.710Z,8.15
2019-01-27T11:50:25.148Z,8.55
2019-01-27T11:52:59.702Z,8.75
2019-01-27T11:55:28.291Z,8.81
2019-01-27T11:57:56.830Z,8.76
2019-01-27T12:00:32.230Z,9.03
2019-01-27T12:03:00.768Z,8.59
2019-01-27T12:05:29.320Z,8.47
2019-01-27T12:07:57.893Z,8.48
2019-01-27T12:10:26.431Z,8.42
2019-01-27T12:12:54.981Z,8.45
2019-01-27T12:15:23.549Z,8.29
2019-01-27T12:17:52.084Z,8.09
2019-01-27T12:20:20.653Z,8.10
2019-01-27T12:22:49.199Z,8.03
2019-01-27T12:25:17.789Z,7.92
2019-01-27T12:27:46.382Z,7.85
2019-01-27T12:30:17.280Z,7.72
2019-01-27T12:32:45.876Z,7.71
2019-01-27T12:35:14.423Z,7.59
2019-01-27T12:37:42.963Z,7.63
2019-01-27T12:40:14.531Z,7.59
2019-01-27T12:42:43.080Z,7.82
2019-01-27T12:45:13.100Z,7.98
2019-01-27T12:47:41.736Z,7.93
2019-01-27T12:50:12.207Z,7.87
2019-01-27T12:52:40.777Z,7.92
2019-01-27T12:55:10.667Z,8.00
2019-01-27T12:57:39.165Z,8.02
2019-01-27T13:00:35.575Z,7.73
2019-01-27T13:03:04.133Z,7.85
2019-01-27T13:05:33.345Z,8.00
2019-01-27T13:08:01.927Z,8.14
2019-01-27T13:10:30.461Z,8.00
2019-01-27T13:12:59.165Z,8.15
2019-01-27T13:15:27.751Z,8.19
2019-01-27T13:17:56.299Z,7.86
2019-01-27T13:20:24.847Z,7.63
2019-01-27T13:22:53.777Z,7.25
2019-01-27T13:25:22.355Z,7.24
2019-01-27T13:27:50.967Z,7.13
2019-01-27T13:30:20.910Z,7.07
2019-01-27T13:32:49.516Z,7.16
2019-01-27T13:35:18.125Z,7.18
2019-01-27T13:37:46.670Z,7.25
2019-01-27T13:40:17.393Z,7.29
2019-01-27T13:42:45.981Z,7.30
2019-01-27T13:45:20.391Z,7.38
2019-01-27T13:47:48.970Z,7.31
2019-01-27T13:50:17.596Z,7.16
2019-01-27T13:52:46.135Z,7.09
2019-01-27T13:55:17.730Z,6.98
2019-01-27T13:57:46.270Z,6.96
2019-01-27T14:00:17.521Z,6.98
2019-01-27T14:02:46.086Z,7.05
2019-01-27T14:05:14.617Z,7.20
2019-01-27T14:07:43.197Z,7.16
2019-01-27T14:10:14.639Z,7.23
2019-01-27T14:12:43.178Z,7.17
2019-01-27T14:15:16.266Z,7.17
2019-01-27T14:17:44.806Z,7.24
2019-01-27T14:20:14.825Z,7.14
2019-01-27T14:22:43.387Z,7.03
2019-01-27T14:25:13.002Z,7.02
2019-01-27T14:27:41.607Z,6.99
2019-01-27T14:30:13.370Z,6.95
2019-01-27T14:32:41.936Z,7.05
2019-01-27T14:35:11.889Z,7.00
2019-01-27T14:37:40.430Z,6.88
2019-01-27T14:40:11.166Z,6.89
2019-01-27T14:42:39.738Z,6.81
2019-01-27T14:45:11.615Z,6.67
2019-01-27T14:47:40.144Z,6.68
2019-01-27T14:50:12.500Z,6.64
2019-01-27T14:52:41.058Z,6.74
2019-01-27T14:55:10.860Z,6.68
2019-01-27T14:57:39.417Z,6.71
2019-01-27T15:00:11.725Z,6.64
2019-01-27T15:02:40.302Z,6.64
2019-01-27T15:05:10.939Z,6.59
2019-01-27T15:07:39.481Z,6.62
2019-01-27T15:10:10.185Z,6.65
2019-01-27T15:12:38.721Z,6.63
2019-01-27T15:15:10.602Z,6.75
2019-01-27T15:17:39.879Z,6.75
2019-01-27T15:20:12.374Z,6.74
2019-01-27T15:22:40.904Z,6.66
2019-01-27T15:25:09.585Z,6.58
2019-01-27T15:27:38.597Z,6.46
2019-01-27T15:30:11.604Z,6.41
2019-01-27T15:32:40.176Z,6.38
2019-01-27T15:35:09.133Z,6.35
2019-01-27T15:37:37.683Z,6.30
2019-01-27T15:40:06.401Z,6.29
2019-01-27T15:42:34.969Z,6.22
2019-01-27T15:45:03.558Z,6.26
2019-01-27T15:47:32.069Z,6.16
2019-01-27T15:50:00.645Z,6.08
2019-01-27T15:52:29.211Z,6.03
2019-01-27T15:54:57.740Z,6.08
2019-01-27T15:57:26.308Z,6.12
2019-01-27T15:59:54.841Z,6.11
2019-01-27T16:02:23.407Z,6.09
2019-01-27T16:04:52.290Z,6.07
2019-01-27T16:07:20.832Z,6.03
2019-01-27T16:09:49.407Z,6.00
2019-01-27T16:12:17.944Z,6.01
2019-01-27T16:14:46.488Z,6.02
2019-01-27T16:17:15.049Z,5.97
2019-01-27T16:19:43.589Z,5.99
2019-01-27T16:22:12.483Z,5.90
2019-01-27T16:24:41.031Z,5.91
2019-01-27T16:27:09.629Z,5.88
2019-01-27T16:29:53.499Z,5.93
2019-01-27T16:32:28.849Z,5.83
2019-01-27T16:35:00.940Z,5.80
2019-01-27T16:37:29.506Z,5.83
2019-01-27T16:39:58.049Z,5.80
2019-01-27T16:42:26.625Z,5.79
2019-01-27T16:44:55.171Z,5.84
2019-01-27T16:47:23.715Z,5.80
2019-01-27T16:49:52.283Z,5.85
2019-01-27T16:52:20.830Z,5.88
2019-01-27T16:54:49.378Z,5.82
2019-01-27T16:57:18.165Z,5.87
2019-01-27T16:59:46.718Z,5.81
2019-01-27T17:02:15.258Z,5.80
2019-01-27T17:04:43.840Z,5.83
2019-01-27T17:07:12.387Z,5.84
2019-01-27T17:09:40.930Z,5.72
2019-01-27T17:12:09.509Z,5.77
2019-01-27T17:14:38.055Z,5.78
2019-01-27T17:17:06.603Z,5.72
2019-01-27T17:19:35.177Z,5.65
2019-01-27T17:22:03.712Z,5.64
2019-01-27T17:24:32.287Z,5.66
2019-01-27T17:27:01.121Z,5.72
2019-01-27T17:29:29.720Z,5.80
2019-01-27T17:31:58.284Z,5.76
2019-01-27T17:34:26.848Z,5.70
2019-01-27T17:36:55.404Z,5.72
2019-01-27T17:39:23.977Z,5.71
2019-01-27T17:41:52.548Z,5.82
2019-01-27T17:44:21.421Z,5.73
2019-01-27T17:46:50.003Z,5.69
2019-01-27T17:49:18.543Z,5.59
2019-01-27T17:51:47.091Z,5.56
2019-01-27T17:54:15.669Z,5.50
2019-01-27T17:56:47.492Z,5.56
2019-01-27T17:59:30.307Z,5.63
2019-01-27T18:02:36.499Z,5.57
2019-01-27T18:05:22.330Z,5.61
2019-01-27T18:08:08.855Z,5.55
2019-01-27T18:10:57.435Z,5.58
2019-01-27T18:13:51.250Z,5.61
2019-01-27T18:16:19.069Z,5.58
2019-01-27T18:18:49.295Z,5.54
2019-01-27T18:21:17.985Z,5.54
2019-01-27T18:23:47.779Z,5.50
2019-01-27T18:26:17.476Z,5.40
2019-01-27T18:28:46.167Z,5.49
2019-01-27T18:31:14.741Z,5.47
2019-01-27T18:33:43.626Z,5.30
2019-01-27T18:36:12.202Z,5.15
2019-01-27T18:38:40.792Z,5.12
2019-01-27T18:41:09.353Z,5.02
2019-01-27T18:43:37.880Z,4.96
2019-01-27T18:46:06.464Z,4.88
2019-01-27T18:48:35.023Z,4.80
2019-01-27T18:51:03.586Z,4.68
2019-01-27T18:54:09.643Z,4.56
2019-01-27T18:56:55.712Z,4.50
2019-01-27T18:59:30.836Z,4.39
2019-01-27T19:02:14.921Z,4.36
2019-01-27T19:04:50.329Z,4.31
2019-01-27T19:07:39.508Z,4.30
2019-01-27T19:10:26.115Z,4.25
2019-01-27T19:13:19.743Z,4.24
2019-01-27T19:15:55.320Z,4.20
2019-01-27T19:18:45.707Z,4.14
2019-01-27T19:21:21.704Z,4.14
2019-01-27T19:24:07.936Z,4.10
2019-01-27T19:26:48.989Z,4.12
2019-01-27T19:29:27.477Z,4.14
2019-01-27T19:32:10.745Z,4.13
2019-01-27T19:35:07.430Z,4.12
2019-01-27T19:37:55.349Z,4.11
2019-01-27T19:40:41.117Z,4.11
2019-01-27T19:43:28.293Z,4.11
2019-01-27T19:46:09.197Z,4.12
2019-01-27T19:49:03.048Z,4.09
2019-01-27T19:51:51.923Z,4.12
2019-01-27T19:54:57.816Z,4.04
2019-01-27T19:57:43.392Z,4.06
2019-01-27T20:00:19.102Z,4.14
2019-01-27T20:02:54.699Z,4.08
2019-01-27T20:05:45.973Z,4.13
2019-01-27T20:08:28.205Z,4.16
2019-01-27T20:11:24.598Z,4.22
2019-01-27T20:14:15.043Z,4.21
2019-01-27T20:17:00.383Z,4.21
2019-01-27T20:19:47.245Z,4.21
2019-01-27T20:22:27.350Z,4.23
2019-01-27T20:25:14.075Z,4.20
2019-01-27T20:27:54.528Z,4.23
2019-01-27T20:30:37.992Z,4.22
2019-01-27T20:33:14.121Z,4.22
2019-01-27T20:36:00.603Z,4.26
2019-01-27T20:38:48.173Z,4.21
2019-01-27T20:41:34.351Z,4.29
2019-01-27T20:44:28.274Z,4.30
2019-01-27T20:47:28.315Z,4.23
2019-01-27T20:50:07.006Z,4.21
2019-01-27T20:52:39.653Z,4.21
2019-01-27T20:55:47.300Z,4.19
2019-01-27T20:58:35.584Z,4.19
2019-01-27T21:01:25.483Z,4.24
2019-01-27T21:04:04.238Z,4.23
2019-01-27T21:06:45.823Z,4.22
2019-01-27T21:09:28.818Z,4.22
2019-01-27T21:12:15.170Z,4.21
2019-01-27T21:15:03.571Z,4.21
2019-01-27T21:17:50.016Z,4.20
2019-01-27T21:20:20.916Z,4.17
2019-01-27T21:22:49.740Z,4.16
2019-01-27T21:25:18.700Z,4.14
2019-01-27T21:27:47.322Z,4.13
2019-01-27T21:30:16.937Z,4.09
2019-01-27T21:32:45.503Z,4.09
2019-01-27T21:35:14.071Z,4.13
2019-01-27T21:37:42.641Z,4.08
2019-01-27T21:40:17.301Z,4.07
2019-01-27T21:42:47.650Z,4.10
2019-01-27T21:45:16.274Z,4.04
2019-01-27T21:47:45.107Z,4.07
2019-01-27T21:50:16.181Z,4.03
2019-01-27T21:52:44.722Z,4.06
2019-01-27T21:55:13.553Z,4.01
2019-01-27T21:57:42.139Z,4.07
2019-01-27T22:00:13.555Z,4.11
2019-01-27T22:02:42.105Z,4.08
2019-01-27T22:05:10.674Z,4.03
2019-01-27T22:07:39.210Z,4.05
2019-01-27T22:10:09.264Z,4.00
2019-01-27T22:12:38.143Z,3.97
2019-01-27T22:15:06.769Z,3.90
2019-01-27T22:17:35.356Z,3.96
2019-01-27T22:20:04.805Z,3.94
2019-01-27T22:22:33.344Z,3.92
2019-01-27T22:25:01.974Z,3.85
2019-01-27T22:27:30.483Z,3.86
2019-01-27T22:29:59.052Z,3.85
2019-01-27T22:32:27.620Z,3.81
2019-01-27T22:34:56.190Z,3.67
2019-01-27T22:37:24.767Z,3.61
2019-01-27T22:39:53.308Z,3.61
2019-01-27T22:42:21.847Z,3.66
2019-01-27T22:44:50.413Z,3.65
2019-01-27T22:47:18.962Z,3.78
2019-01-27T22:49:47.535Z,3.78
2019-01-27T22:52:16.112Z,3.81
2019-01-27T22:54:44.655Z,3.72
2019-01-27T22:57:13.193Z,3.67
2019-01-27T22:59:41.762Z,3.74
2019-01-27T23:02:10.308Z,3.78
2019-01-27T23:04:38.878Z,3.79
2019-01-27T23:07:07.425Z,3.73
2019-01-27T23:09:35.978Z,3.80
2019-01-27T23:12:04.642Z,3.88
2019-01-27T23:14:33.193Z,3.88
2019-01-27T23:17:01.782Z,3.87
2019-01-27T23:19:30.343Z,3.92
2019-01-27T23:21:58.888Z,3.84
2019-01-27T23:24:27.483Z,3.85
2019-01-27T23:26:56.026Z,3.90
2019-01-27T23:29:24.612Z,3.86
2019-01-27T23:31:53.196Z,3.88
2019-01-27T23:34:21.767Z,3.82
2019-01-27T23:36:50.338Z,3.87
2019-01-27T23:39:18.949Z,3.87
2019-01-27T23:41:47.505Z,3.86
2019-01-27T23:44:16.055Z,3.86
2019-01-27T23:46:44.629Z,3.81
2019-01-27T23:49:13.185Z,3.83
2019-01-27T23:51:41.764Z,3.77
2019-01-27T23:54:10.316Z,3.76
2019-01-27T23:56:38.904Z,3.81
2019-01-27T23:59:07.495Z,3.76
